sensor_id;sensor_type;location;lat;lon;timestamp;pressure;altitude;pressure_sealevel;temperature;humidity
56719;BME280;42597;40.636;0.278;2022-09-09T00:02:15;97279.72;;;24.35;68.62
56719;BME280;42597;40.636;0.278;2022-09-09T00:04:51;97271.13;;;24.49;67.72
56719;BME280;42597;40.636;0.278;2022-09-09T00:07:28;97267.13;;;24.34;68.57
56719;BME280;42597;40.636;0.278;2022-09-09T00:10:13;97261.78;;;24.27;68.52
56719;BME280;42597;40.636;0.278;2022-09-09T00:15:34;97273.53;;;24.31;68.36
56719;BME280;42597;40.636;0.278;2022-09-09T00:18:11;97270.22;;;24.36;67.99
56719;BME280;42597;40.636;0.278;2022-09-09T00:20:48;97264.03;;;24.32;67.79
56719;BME280;42597;40.636;0.278;2022-09-09T00:23:25;97254.91;;;24.19;67.91
56719;BME280;42597;40.636;0.278;2022-09-09T00:28:28;97256.28;;;24.27;67.00
56719;BME280;42597;40.636;0.278;2022-09-09T00:31:07;97246.69;;;24.31;67.75
56719;BME280;42597;40.636;0.278;2022-09-09T00:33:36;97257.00;;;23.98;68.49
56719;BME280;42597;40.636;0.278;2022-09-09T00:36:12;97252.50;;;24.21;67.71
56719;BME280;42597;40.636;0.278;2022-09-09T00:38:48;97254.41;;;24.07;67.83
56719;BME280;42597;40.636;0.278;2022-09-09T00:43:57;97265.38;;;22.62;73.27
56719;BME280;42597;40.636;0.278;2022-09-09T00:49:55;97260.69;;;23.03;71.95
56719;BME280;42597;40.636;0.278;2022-09-09T00:52:36;97240.75;;;22.75;71.99
56719;BME280;42597;40.636;0.278;2022-09-09T00:57:59;97236.38;;;24.03;67.37
56719;BME280;42597;40.636;0.278;2022-09-09T01:00:27;97234.56;;;23.80;67.79
56719;BME280;42597;40.636;0.278;2022-09-09T01:11:22;97224.66;;;22.54;71.78
56719;BME280;42597;40.636;0.278;2022-09-09T01:14:00;97219.63;;;22.29;72.87
56719;BME280;42597;40.636;0.278;2022-09-09T01:16:29;97214.81;;;23.12;69.96
56719;BME280;42597;40.636;0.278;2022-09-09T01:18:58;97222.75;;;23.79;67.33
56719;BME280;42597;40.636;0.278;2022-09-09T01:26:42;97213.66;;;23.30;66.96
56719;BME280;42597;40.636;0.278;2022-09-09T01:29:11;97221.78;;;22.17;71.65
56719;BME280;42597;40.636;0.278;2022-09-09T01:31:56;97221.81;;;21.90;72.85
56719;BME280;42597;40.636;0.278;2022-09-09T01:34:24;97220.88;;;22.01;72.95
56719;BME280;42597;40.636;0.278;2022-09-09T01:39:19;97222.72;;;22.31;70.28
56719;BME280;42597;40.636;0.278;2022-09-09T01:41:45;97217.84;;;21.95;71.37
56719;BME280;42597;40.636;0.278;2022-09-09T01:44:11;97216.97;;;21.75;72.90
56719;BME280;42597;40.636;0.278;2022-09-09T01:46:36;97221.28;;;21.76;72.21
56719;BME280;42597;40.636;0.278;2022-09-09T01:49:03;97216.56;;;22.00;71.48
56719;BME280;42597;40.636;0.278;2022-09-09T01:51:31;97215.28;;;23.27;67.42
56719;BME280;42597;40.636;0.278;2022-09-09T01:53:56;97207.47;;;23.58;65.68
56719;BME280;42597;40.636;0.278;2022-09-09T02:07:50;97214.81;;;22.09;68.94
56719;BME280;42597;40.636;0.278;2022-09-09T02:10:23;97212.88;;;22.93;67.10
56719;BME280;42597;40.636;0.278;2022-09-09T02:12:57;97210.13;;;23.46;65.50
56719;BME280;42597;40.636;0.278;2022-09-09T02:15:36;97211.00;;;23.06;65.17
56719;BME280;42597;40.636;0.278;2022-09-09T02:18:08;97206.38;;;22.63;65.90
56719;BME280;42597;40.636;0.278;2022-09-09T02:20:38;97202.03;;;23.55;64.50
56719;BME280;42597;40.636;0.278;2022-09-09T02:23:05;97205.38;;;23.30;63.28
56719;BME280;42597;40.636;0.278;2022-09-09T02:25:34;97202.47;;;23.53;64.58
56719;BME280;42597;40.636;0.278;2022-09-09T02:28:02;97199.97;;;23.43;63.28
56719;BME280;42597;40.636;0.278;2022-09-09T02:30:30;97199.00;;;23.33;64.56
56719;BME280;42597;40.636;0.278;2022-09-09T02:32:58;97199.88;;;23.30;61.89
56719;BME280;42597;40.636;0.278;2022-09-09T02:35:27;97206.38;;;22.63;63.13
56719;BME280;42597;40.636;0.278;2022-09-09T02:37:59;97209.56;;;22.18;63.88
56719;BME280;42597;40.636;0.278;2022-09-09T02:40:27;97206.56;;;22.53;63.04
56719;BME280;42597;40.636;0.278;2022-09-09T02:42:54;97199.97;;;22.27;63.22
56719;BME280;42597;40.636;0.278;2022-09-09T02:45:23;97200.47;;;22.22;63.95
56719;BME280;42597;40.636;0.278;2022-09-09T02:47:51;97202.19;;;22.75;61.82
56719;BME280;42597;40.636;0.278;2022-09-09T02:50:34;97207.34;;;22.10;62.70
56719;BME280;42597;40.636;0.278;2022-09-09T02:53:19;97204.31;;;22.28;62.29
56719;BME280;42597;40.636;0.278;2022-09-09T02:58:25;97204.94;;;22.15;62.61
56719;BME280;42597;40.636;0.278;2022-09-09T03:00:51;97195.28;;;22.27;62.49
56719;BME280;42597;40.636;0.278;2022-09-09T03:03:18;97194.06;;;22.88;61.66
56719;BME280;42597;40.636;0.278;2022-09-09T03:05:45;97193.28;;;22.87;61.95
56719;BME280;42597;40.636;0.278;2022-09-09T03:08:11;97191.25;;;23.28;60.38
56719;BME280;42597;40.636;0.278;2022-09-09T03:10:38;97195.56;;;23.29;59.14
56719;BME280;42597;40.636;0.278;2022-09-09T03:13:04;97203.81;;;22.73;58.41
56719;BME280;42597;40.636;0.278;2022-09-09T03:15:32;97200.97;;;23.16;58.67
56719;BME280;42597;40.636;0.278;2022-09-09T03:17:59;97206.22;;;23.27;58.44
56719;BME280;42597;40.636;0.278;2022-09-09T03:20:26;97191.78;;;23.55;56.28
56719;BME280;42597;40.636;0.278;2022-09-09T03:22:55;97196.44;;;23.58;56.85
56719;BME280;42597;40.636;0.278;2022-09-09T03:25:22;97197.28;;;23.55;58.72
56719;BME280;42597;40.636;0.278;2022-09-09T03:27:52;97201.50;;;23.44;57.81
56719;BME280;42597;40.636;0.278;2022-09-09T03:30:21;97201.59;;;23.40;55.65
56719;BME280;42597;40.636;0.278;2022-09-09T03:32:46;97206.19;;;23.10;55.58
56719;BME280;42597;40.636;0.278;2022-09-09T03:35:13;97201.59;;;23.40;57.82
56719;BME280;42597;40.636;0.278;2022-09-09T03:37:39;97207.41;;;22.89;56.45
56719;BME280;42597;40.636;0.278;2022-09-09T03:40:05;97212.88;;;22.93;56.42
56719;BME280;42597;40.636;0.278;2022-09-09T03:42:31;97204.47;;;23.00;56.10
56719;BME280;42597;40.636;0.278;2022-09-09T03:44:57;97208.13;;;23.30;57.99
56719;BME280;42597;40.636;0.278;2022-09-09T03:47:23;97214.41;;;22.94;56.50
56719;BME280;42597;40.636;0.278;2022-09-09T03:49:49;97209.97;;;22.60;56.98
56719;BME280;42597;40.636;0.278;2022-09-09T03:52:15;97210.50;;;23.64;56.92
56719;BME280;42597;40.636;0.278;2022-09-09T03:54:41;97219.19;;;22.90;56.80
56719;BME280;42597;40.636;0.278;2022-09-09T03:57:08;97218.81;;;23.28;56.44
56719;BME280;42597;40.636;0.278;2022-09-09T03:59:34;97217.22;;;22.71;57.57
56719;BME280;42597;40.636;0.278;2022-09-09T04:02:00;97218.63;;;22.79;57.32
56719;BME280;42597;40.636;0.278;2022-09-09T04:04:26;97202.63;;;23.46;57.91
56719;BME280;42597;40.636;0.278;2022-09-09T04:06:53;97203.97;;;23.74;56.53
56719;BME280;42597;40.636;0.278;2022-09-09T04:09:19;97204.25;;;22.91;57.20
56719;BME280;42597;40.636;0.278;2022-09-09T04:11:44;97214.84;;;22.93;57.22
56719;BME280;42597;40.636;0.278;2022-09-09T04:14:11;97203.03;;;23.81;55.97
56719;BME280;42597;40.636;0.278;2022-09-09T04:16:38;97203.03;;;23.81;55.75
56719;BME280;42597;40.636;0.278;2022-09-09T04:19:04;97205.63;;;23.88;55.15
56719;BME280;42597;40.636;0.278;2022-09-09T04:21:30;97206.03;;;23.18;56.83
56719;BME280;42597;40.636;0.278;2022-09-09T04:23:56;97209.25;;;23.69;57.32
56719;BME280;42597;40.636;0.278;2022-09-09T04:26:22;97209.84;;;23.24;56.65
56719;BME280;42597;40.636;0.278;2022-09-09T04:28:48;97213.19;;;23.15;57.23
56719;BME280;42597;40.636;0.278;2022-09-09T04:31:19;97205.94;;;23.57;57.60
56719;BME280;42597;40.636;0.278;2022-09-09T04:33:46;97203.19;;;23.74;57.00
56719;BME280;42597;40.636;0.278;2022-09-09T04:36:12;97212.22;;;23.91;56.70
56719;BME280;42597;40.636;0.278;2022-09-09T04:38:38;97213.06;;;23.55;55.97
56719;BME280;42597;40.636;0.278;2022-09-09T04:41:04;97212.53;;;23.44;57.00
56719;BME280;42597;40.636;0.278;2022-09-09T04:43:30;97209.75;;;23.27;56.06
56719;BME280;42597;40.636;0.278;2022-09-09T04:45:56;97213.84;;;23.55;57.78
56719;BME280;42597;40.636;0.278;2022-09-09T04:48:21;97212.31;;;23.87;56.13
56719;BME280;42597;40.636;0.278;2022-09-09T04:51:08;97218.84;;;23.44;56.05
56719;BME280;42597;40.636;0.278;2022-09-09T04:53:34;97218.88;;;23.60;57.09
56719;BME280;42597;40.636;0.278;2022-09-09T04:56:05;97220.50;;;23.91;56.61
56719;BME280;42597;40.636;0.278;2022-09-09T04:58:31;97229.16;;;23.93;56.43
56719;BME280;42597;40.636;0.278;2022-09-09T05:01:05;97221.03;;;24.02;55.53
56719;BME280;42597;40.636;0.278;2022-09-09T05:03:30;97217.56;;;23.65;57.26
56719;BME280;42597;40.636;0.278;2022-09-09T05:06:13;97218.69;;;23.84;56.11
56719;BME280;42597;40.636;0.278;2022-09-09T05:08:40;97228.03;;;23.90;56.44
56719;BME280;42597;40.636;0.278;2022-09-09T05:11:19;97237.44;;;22.84;58.50
56719;BME280;42597;40.636;0.278;2022-09-09T05:13:47;97239.59;;;22.96;59.29
56719;BME280;42597;40.636;0.278;2022-09-09T05:16:13;97235.59;;;23.70;57.07
56719;BME280;42597;40.636;0.278;2022-09-09T05:18:40;97239.75;;;23.25;57.16
56719;BME280;42597;40.636;0.278;2022-09-09T05:21:07;97241.91;;;23.70;56.36
56719;BME280;42597;40.636;0.278;2022-09-09T05:23:33;97246.09;;;23.22;58.35
56719;BME280;42597;40.636;0.278;2022-09-09T05:25:59;97244.16;;;23.39;58.58
56719;BME280;42597;40.636;0.278;2022-09-09T05:28:26;97245.09;;;22.96;57.69
56719;BME280;42597;40.636;0.278;2022-09-09T05:30:58;97254.44;;;22.59;59.54
56719;BME280;42597;40.636;0.278;2022-09-09T05:33:26;97253.69;;;22.98;58.22
56719;BME280;42597;40.636;0.278;2022-09-09T05:36:01;97253.97;;;22.84;58.77
56719;BME280;42597;40.636;0.278;2022-09-09T05:38:28;97256.16;;;22.53;60.02
56719;BME280;42597;40.636;0.278;2022-09-09T05:40:54;97260.91;;;23.48;58.16
56719;BME280;42597;40.636;0.278;2022-09-09T05:43:21;97263.75;;;23.08;57.94
56719;BME280;42597;40.636;0.278;2022-09-09T05:45:48;97255.94;;;22.63;59.47
56719;BME280;42597;40.636;0.278;2022-09-09T05:48:17;97257.69;;;22.54;59.62
56719;BME280;42597;40.636;0.278;2022-09-09T05:50:43;97272.06;;;22.85;58.60
56719;BME280;42597;40.636;0.278;2022-09-09T05:53:10;97267.19;;;22.73;58.76
56719;BME280;42597;40.636;0.278;2022-09-09T05:55:36;97270.03;;;23.45;58.81
56719;BME280;42597;40.636;0.278;2022-09-09T05:58:02;97269.81;;;23.20;57.82
56719;BME280;42597;40.636;0.278;2022-09-09T06:00:28;97271.53;;;22.50;59.92
56719;BME280;42597;40.636;0.278;2022-09-09T06:02:54;97282.69;;;22.83;58.67
56719;BME280;42597;40.636;0.278;2022-09-09T06:05:20;97278.56;;;23.14;58.06
56719;BME280;42597;40.636;0.278;2022-09-09T06:07:48;97286.50;;;23.12;57.23
56719;BME280;42597;40.636;0.278;2022-09-09T06:10:13;97289.44;;;23.22;56.69
56719;BME280;42597;40.636;0.278;2022-09-09T06:12:39;97295.50;;;23.33;55.71
56719;BME280;42597;40.636;0.278;2022-09-09T06:15:05;97287.19;;;23.89;56.28
56719;BME280;42597;40.636;0.278;2022-09-09T06:17:32;97302.59;;;23.70;56.40
56719;BME280;42597;40.636;0.278;2022-09-09T06:19:57;97302.53;;;23.74;56.62
56719;BME280;42597;40.636;0.278;2022-09-09T06:22:23;97307.19;;;23.77;54.35
56719;BME280;42597;40.636;0.278;2022-09-09T06:24:49;97312.34;;;24.07;53.89
56719;BME280;42597;40.636;0.278;2022-09-09T06:27:14;97302.97;;;24.21;54.25
56719;BME280;42597;40.636;0.278;2022-09-09T06:29:40;97303.22;;;24.10;53.10
56719;BME280;42597;40.636;0.278;2022-09-09T06:32:05;97308.13;;;24.35;52.68
56719;BME280;42597;40.636;0.278;2022-09-09T06:34:33;97307.44;;;24.31;52.61
56719;BME280;42597;40.636;0.278;2022-09-09T06:37:00;97310.13;;;24.19;52.55
56719;BME280;42597;40.636;0.278;2022-09-09T06:39:25;97304.34;;;24.29;53.20
56719;BME280;42597;40.636;0.278;2022-09-09T06:41:51;97310.03;;;24.22;53.89
56719;BME280;42597;40.636;0.278;2022-09-09T06:44:18;97311.88;;;24.45;53.51
56719;BME280;42597;40.636;0.278;2022-09-09T06:46:44;97307.88;;;24.46;54.33
56719;BME280;42597;40.636;0.278;2022-09-09T06:49:13;97308.91;;;24.69;53.88
56719;BME280;42597;40.636;0.278;2022-09-09T06:51:39;97314.69;;;24.87;52.89
56719;BME280;42597;40.636;0.278;2022-09-09T06:54:08;97314.69;;;24.87;52.82
56719;BME280;42597;40.636;0.278;2022-09-09T06:56:36;97318.69;;;24.86;52.68
56719;BME280;42597;40.636;0.278;2022-09-09T06:59:07;97324.91;;;25.19;52.71
56719;BME280;42597;40.636;0.278;2022-09-09T07:01:38;97326.53;;;24.87;53.00
56719;BME280;42597;40.636;0.278;2022-09-09T07:04:07;97333.66;;;24.56;53.82
56719;BME280;42597;40.636;0.278;2022-09-09T07:06:42;97326.56;;;25.17;52.01
56719;BME280;42597;40.636;0.278;2022-09-09T07:09:11;97327.47;;;25.39;52.39
56719;BME280;42597;40.636;0.278;2022-09-09T07:11:41;97311.81;;;25.74;51.12
56719;BME280;42597;40.636;0.278;2022-09-09T07:14:08;97321.69;;;25.88;49.81
56719;BME280;42597;40.636;0.278;2022-09-09T07:16:34;97326.31;;;26.04;50.07
56719;BME280;42597;40.636;0.278;2022-09-09T07:19:03;97317.38;;;25.87;50.41
56719;BME280;42597;40.636;0.278;2022-09-09T07:21:30;97319.25;;;25.77;50.06
56719;BME280;42597;40.636;0.278;2022-09-09T07:23:57;97322.78;;;25.91;50.26
56719;BME280;42597;40.636;0.278;2022-09-09T07:26:28;97318.47;;;26.02;48.48
56719;BME280;42597;40.636;0.278;2022-09-09T07:28:54;97320.03;;;25.78;48.07
56719;BME280;42597;40.636;0.278;2022-09-09T07:31:27;97329.41;;;25.68;47.82
56719;BME280;42597;40.636;0.278;2022-09-09T07:33:53;97327.84;;;25.54;48.19
56719;BME280;42597;40.636;0.278;2022-09-09T07:36:25;97329.75;;;25.70;48.09
56719;BME280;42597;40.636;0.278;2022-09-09T07:38:59;97336.66;;;25.91;48.08
56719;BME280;42597;40.636;0.278;2022-09-09T07:41:31;97332.53;;;26.08;48.29
56719;BME280;42597;40.636;0.278;2022-09-09T07:43:59;97335.47;;;25.37;50.83
56719;BME280;42597;40.636;0.278;2022-09-09T07:46:28;97346.72;;;25.30;50.57
56719;BME280;42597;40.636;0.278;2022-09-09T07:48:56;97346.47;;;25.66;50.67
56719;BME280;42597;40.636;0.278;2022-09-09T07:51:27;97348.59;;;26.00;48.25
56719;BME280;42597;40.636;0.278;2022-09-09T07:53:56;97352.91;;;25.89;47.87
56719;BME280;42597;40.636;0.278;2022-09-09T07:56:26;97356.78;;;26.17;47.88
56719;BME280;42597;40.636;0.278;2022-09-09T07:58:53;97348.31;;;25.56;49.30
56719;BME280;42597;40.636;0.278;2022-09-09T08:01:32;97355.47;;;25.83;49.09
56719;BME280;42597;40.636;0.278;2022-09-09T08:04:02;97359.06;;;25.54;49.58
56719;BME280;42597;40.636;0.278;2022-09-09T08:06:30;97358.69;;;25.52;49.40
56719;BME280;42597;40.636;0.278;2022-09-09T08:08:56;97353.56;;;25.80;48.11
56719;BME280;42597;40.636;0.278;2022-09-09T08:11:23;97350.28;;;25.85;48.95
56719;BME280;42597;40.636;0.278;2022-09-09T08:13:50;97354.78;;;25.79;47.59
56719;BME280;42597;40.636;0.278;2022-09-09T08:16:22;97355.84;;;25.69;48.04
56719;BME280;42597;40.636;0.278;2022-09-09T08:18:49;97359.44;;;25.82;47.74
56719;BME280;42597;40.636;0.278;2022-09-09T08:21:17;97356.91;;;25.33;50.60
56719;BME280;42597;40.636;0.278;2022-09-09T08:23:45;97360.47;;;25.46;49.81
56719;BME280;42597;40.636;0.278;2022-09-09T08:26:17;97358.56;;;25.30;50.22
56719;BME280;42597;40.636;0.278;2022-09-09T08:28:49;97361.81;;;25.54;49.03
56719;BME280;42597;40.636;0.278;2022-09-09T08:31:19;97358.94;;;25.45;49.97
56719;BME280;42597;40.636;0.278;2022-09-09T08:33:46;97363.31;;;25.30;50.01
56719;BME280;42597;40.636;0.278;2022-09-09T08:36:16;97361.22;;;26.01;47.12
56719;BME280;42597;40.636;0.278;2022-09-09T08:38:42;97373.53;;;26.13;46.62
56719;BME280;42597;40.636;0.278;2022-09-09T08:50:04;97365.34;;;25.42;49.73
56719;BME280;42597;40.636;0.278;2022-09-09T08:56:00;97365.38;;;26.44;46.54
56719;BME280;42597;40.636;0.278;2022-09-09T08:58:17;97366.06;;;26.48;47.57
56719;BME280;42597;40.636;0.278;2022-09-09T09:06:29;97379.16;;;25.84;48.57
56719;BME280;42597;40.636;0.278;2022-09-09T09:11:47;97394.69;;;25.94;48.55
56719;BME280;42597;40.636;0.278;2022-09-09T09:14:21;97393.53;;;25.79;48.39
56719;BME280;42597;40.636;0.278;2022-09-09T09:17:07;97388.34;;;25.39;49.40
56719;BME280;42597;40.636;0.278;2022-09-09T09:19:38;97388.91;;;26.27;46.76
56719;BME280;42597;40.636;0.278;2022-09-09T09:27:16;97409.94;;;25.86;48.04
56719;BME280;42597;40.636;0.278;2022-09-09T09:29:45;97402.53;;;26.08;46.81
56719;BME280;42597;40.636;0.278;2022-09-09T09:32:15;97401.53;;;26.02;47.39
56719;BME280;42597;40.636;0.278;2022-09-09T09:34:42;97404.19;;;25.93;47.59
56719;BME280;42597;40.636;0.278;2022-09-09T09:37:17;97413.19;;;26.10;47.01
56719;BME280;42597;40.636;0.278;2022-09-09T09:39:45;97410.31;;;25.72;47.80
56719;BME280;42597;40.636;0.278;2022-09-09T09:42:16;97430.56;;;25.85;47.51
56719;BME280;42597;40.636;0.278;2022-09-09T09:44:43;97418.72;;;26.36;45.46
56719;BME280;42597;40.636;0.278;2022-09-09T09:47:22;97415.63;;;26.46;45.92
56719;BME280;42597;40.636;0.278;2022-09-09T09:49:59;97416.59;;;26.78;44.13
56719;BME280;42597;40.636;0.278;2022-09-09T09:52:27;97406.31;;;26.27;46.62
56719;BME280;42597;40.636;0.278;2022-09-09T09:54:54;97405.56;;;25.72;47.69
56719;BME280;42597;40.636;0.278;2022-09-09T09:57:27;97407.94;;;26.25;46.15
56719;BME280;42597;40.636;0.278;2022-09-09T10:00:21;97405.00;;;26.57;45.28
56719;BME280;42597;40.636;0.278;2022-09-09T10:02:48;97409.69;;;27.17;43.93
56719;BME280;42597;40.636;0.278;2022-09-09T10:05:22;97409.84;;;27.14;43.60
56719;BME280;42597;40.636;0.278;2022-09-09T10:08:08;97407.13;;;27.67;42.26
56719;BME280;42597;40.636;0.278;2022-09-09T10:16:17;97413.66;;;26.94;44.20
56719;BME280;42597;40.636;0.278;2022-09-09T10:33:10;97390.91;;;28.18;40.99
56719;BME280;42597;40.636;0.278;2022-09-09T10:35:57;97394.47;;;28.19;40.70
56719;BME280;42597;40.636;0.278;2022-09-09T10:38:42;97394.75;;;28.21;40.96
56719;BME280;42597;40.636;0.278;2022-09-09T10:44:01;97381.50;;;27.85;40.01
56719;BME280;42597;40.636;0.278;2022-09-09T10:52:01;97375.88;;;27.53;42.28
56719;BME280;42597;40.636;0.278;2022-09-09T10:57:14;97364.31;;;26.54;44.63
56719;BME280;42597;40.636;0.278;2022-09-09T10:59:47;97368.13;;;27.04;43.57
56719;BME280;42597;40.636;0.278;2022-09-09T11:02:21;97359.81;;;28.01;40.68
56719;BME280;42597;40.636;0.278;2022-09-09T11:04:57;97358.91;;;27.07;43.40
56719;BME280;42597;40.636;0.278;2022-09-09T11:07:30;97362.59;;;26.70;43.99
56719;BME280;42597;40.636;0.278;2022-09-09T11:10:02;97361.28;;;26.62;43.96
56719;BME280;42597;40.636;0.278;2022-09-09T11:12:35;97360.38;;;26.99;43.48
56719;BME280;42597;40.636;0.278;2022-09-09T11:15:29;97361.66;;;26.86;43.64
56719;BME280;42597;40.636;0.278;2022-09-09T11:17:59;97351.34;;;26.86;43.60
56719;BME280;42597;40.636;0.278;2022-09-09T11:20:26;97348.28;;;27.28;42.35
56719;BME280;42597;40.636;0.278;2022-09-09T11:22:57;97353.13;;;26.80;43.42
56719;BME280;42597;40.636;0.278;2022-09-09T11:25:44;97366.47;;;27.07;42.92
56719;BME280;42597;40.636;0.278;2022-09-09T11:31:17;97342.91;;;26.90;43.17
56719;BME280;42597;40.636;0.278;2022-09-09T11:41:53;97354.91;;;27.08;42.67
56719;BME280;42597;40.636;0.278;2022-09-09T11:44:37;97356.91;;;27.74;41.11
56719;BME280;42597;40.636;0.278;2022-09-09T11:47:02;97348.78;;;29.15;37.85
56719;BME280;42597;40.636;0.278;2022-09-09T11:49:40;97346.09;;;28.66;38.73
56719;BME280;42597;40.636;0.278;2022-09-09T11:52:22;97345.31;;;27.44;41.42
56719;BME280;42597;40.636;0.278;2022-09-09T11:54:49;97328.16;;;28.39;39.56
56719;BME280;42597;40.636;0.278;2022-09-09T11:57:30;97333.31;;;27.47;41.41
56719;BME280;42597;40.636;0.278;2022-09-09T11:59:57;97332.63;;;27.65;41.10
56719;BME280;42597;40.636;0.278;2022-09-09T12:02:27;97328.09;;;27.80;40.83
56719;BME280;42597;40.636;0.278;2022-09-09T12:05:07;97317.84;;;28.09;39.75
56719;BME280;42597;40.636;0.278;2022-09-09T12:07:53;97317.28;;;27.51;41.11
56719;BME280;42597;40.636;0.278;2022-09-09T12:10:29;97309.34;;;28.52;38.86
56719;BME280;42597;40.636;0.278;2022-09-09T12:12:55;97304.91;;;27.43;41.71
56719;BME280;42597;40.636;0.278;2022-09-09T12:15:32;97311.81;;;28.50;39.31
56719;BME280;42597;40.636;0.278;2022-09-09T12:17:58;97299.78;;;29.09;37.29
56719;BME280;42597;40.636;0.278;2022-09-09T12:25:56;97301.75;;;29.87;35.99
56719;BME280;42597;40.636;0.278;2022-09-09T12:34:08;97295.63;;;29.04;37.55
56719;BME280;42597;40.636;0.278;2022-09-09T12:36:35;97302.25;;;29.07;37.30
56719;BME280;42597;40.636;0.278;2022-09-09T12:39:15;97286.78;;;29.15;37.25
56719;BME280;42597;40.636;0.278;2022-09-09T12:41:51;97291.06;;;29.34;36.65
56719;BME280;42597;40.636;0.278;2022-09-09T12:44:24;97292.19;;;28.82;38.36
56719;BME280;42597;40.636;0.278;2022-09-09T12:46:51;97311.63;;;27.33;44.29
56719;BME280;42597;40.636;0.278;2022-09-09T12:49:33;97307.09;;;27.04;48.76
56719;BME280;42597;40.636;0.278;2022-09-09T12:52:20;97284.69;;;27.12;50.81
56719;BME280;42597;40.636;0.278;2022-09-09T12:54:48;97308.13;;;27.73;51.11
56719;BME280;42597;40.636;0.278;2022-09-09T12:57:16;97307.63;;;27.96;51.66
56719;BME280;42597;40.636;0.278;2022-09-09T12:59:43;97320.66;;;27.02;52.92
56719;BME280;42597;40.636;0.278;2022-09-09T13:02:24;97311.41;;;27.05;54.21
56719;BME280;42597;40.636;0.278;2022-09-09T13:04:50;97317.78;;;27.28;55.07
56719;BME280;42597;40.636;0.278;2022-09-09T13:07:18;97317.25;;;27.20;55.21
56719;BME280;42597;40.636;0.278;2022-09-09T13:09:45;97324.38;;;27.08;55.07
56719;BME280;42597;40.636;0.278;2022-09-09T13:12:23;97319.66;;;27.31;55.39
56719;BME280;42597;40.636;0.278;2022-09-09T13:14:51;97320.50;;;26.84;56.01
56719;BME280;42597;40.636;0.278;2022-09-09T13:17:24;97311.75;;;27.51;54.58
56719;BME280;42597;40.636;0.278;2022-09-09T13:19:51;97326.69;;;26.88;55.37
56719;BME280;42597;40.636;0.278;2022-09-09T13:24:46;97340.94;;;27.34;53.41
56719;BME280;42597;40.636;0.278;2022-09-09T13:27:28;97330.44;;;27.82;51.71
56719;BME280;42597;40.636;0.278;2022-09-09T13:29:56;97335.41;;;27.96;53.22
56719;BME280;42597;40.636;0.278;2022-09-09T13:32:23;97328.47;;;27.92;52.76
56719;BME280;42597;40.636;0.278;2022-09-09T13:34:53;97327.41;;;27.98;51.08
56719;BME280;42597;40.636;0.278;2022-09-09T13:37:38;97339.34;;;26.89;53.86
56719;BME280;42597;40.636;0.278;2022-09-09T13:40:14;97333.81;;;27.33;52.64
56719;BME280;42597;40.636;0.278;2022-09-09T13:42:42;97336.28;;;27.84;50.81
56719;BME280;42597;40.636;0.278;2022-09-09T13:45:20;97337.25;;;27.90;50.33
56719;BME280;42597;40.636;0.278;2022-09-09T13:47:47;97339.16;;;27.05;53.12
56719;BME280;42597;40.636;0.278;2022-09-09T13:52:53;97338.59;;;27.54;51.68
56719;BME280;42597;40.636;0.278;2022-09-09T13:55:23;97329.41;;;27.67;52.11
56719;BME280;42597;40.636;0.278;2022-09-09T13:57:57;97327.91;;;28.15;50.17
56719;BME280;42597;40.636;0.278;2022-09-09T14:00:24;97327.19;;;27.62;51.58
56719;BME280;42597;40.636;0.278;2022-09-09T14:02:50;97333.47;;;27.22;52.41
56719;BME280;42597;40.636;0.278;2022-09-09T14:05:17;97330.50;;;27.38;51.17
56719;BME280;42597;40.636;0.278;2022-09-09T14:07:43;97324.63;;;27.67;50.16
56719;BME280;42597;40.636;0.278;2022-09-09T14:10:10;97330.19;;;27.45;50.98
56719;BME280;42597;40.636;0.278;2022-09-09T14:12:36;97324.16;;;28.40;48.20
56719;BME280;42597;40.636;0.278;2022-09-09T14:15:03;97328.69;;;27.53;51.67
56719;BME280;42597;40.636;0.278;2022-09-09T14:17:29;97333.50;;;27.84;49.74
56719;BME280;42597;40.636;0.278;2022-09-09T14:19:57;97327.63;;;27.29;52.14
56719;BME280;42597;40.636;0.278;2022-09-09T14:22:22;97328.69;;;27.22;52.54
56719;BME280;42597;40.636;0.278;2022-09-09T14:24:49;97329.72;;;27.16;52.65
56719;BME280;42597;40.636;0.278;2022-09-09T14:27:14;97324.56;;;27.80;50.65
56719;BME280;42597;40.636;0.278;2022-09-09T14:29:41;97323.66;;;27.30;52.14
56719;BME280;42597;40.636;0.278;2022-09-09T14:32:07;97319.22;;;27.11;52.38
56719;BME280;42597;40.636;0.278;2022-09-09T14:34:32;97329.13;;;27.21;51.64
56719;BME280;42597;40.636;0.278;2022-09-09T14:36:58;97329.03;;;27.55;50.35
56719;BME280;42597;40.636;0.278;2022-09-09T14:39:24;97319.03;;;27.89;49.46
56719;BME280;42597;40.636;0.278;2022-09-09T14:41:49;97322.50;;;28.02;48.99
56719;BME280;42597;40.636;0.278;2022-09-09T14:44:15;97318.44;;;27.63;49.88
56719;BME280;42597;40.636;0.278;2022-09-09T14:46:41;97311.94;;;27.88;48.97
56719;BME280;42597;40.636;0.278;2022-09-09T14:49:08;97308.00;;;27.45;49.85
56719;BME280;42597;40.636;0.278;2022-09-09T14:51:36;97305.28;;;28.35;46.68
56719;BME280;42597;40.636;0.278;2022-09-09T14:54:02;97298.16;;;28.34;47.15
56719;BME280;42597;40.636;0.278;2022-09-09T14:56:30;97303.00;;;28.43;47.31
56719;BME280;42597;40.636;0.278;2022-09-09T14:58:57;97302.50;;;27.86;48.06
56719;BME280;42597;40.636;0.278;2022-09-09T15:01:24;97301.63;;;28.57;46.07
56719;BME280;42597;40.636;0.278;2022-09-09T15:04:00;97304.31;;;28.11;48.34
56719;BME280;42597;40.636;0.278;2022-09-09T15:06:27;97312.59;;;28.69;47.69
56719;BME280;42597;40.636;0.278;2022-09-09T15:08:54;97313.28;;;28.33;48.73
56719;BME280;42597;40.636;0.278;2022-09-09T15:11:23;97305.63;;;28.56;47.36
56719;BME280;42597;40.636;0.278;2022-09-09T15:13:51;97303.53;;;28.19;48.70
56719;BME280;42597;40.636;0.278;2022-09-09T15:16:19;97319.38;;;28.00;50.03
56719;BME280;42597;40.636;0.278;2022-09-09T15:18:46;97305.63;;;28.65;48.13
56719;BME280;42597;40.636;0.278;2022-09-09T15:21:17;97302.78;;;28.19;49.47
56719;BME280;42597;40.636;0.278;2022-09-09T15:23:44;97304.06;;;27.55;50.80